createdAt,value
2023-04-23T00:02:19.980Z,97676.84
2023-04-23T00:07:32.993Z,97677.63
2023-04-23T00:10:01.092Z,97669.06
2023-04-23T00:12:29.721Z,97667.00
2023-04-23T00:14:56.928Z,97666.09
2023-04-23T00:17:23.748Z,97673.34
2023-04-23T00:19:50.412Z,97668.63
2023-04-23T00:22:17.445Z,97676.94
2023-04-23T00:24:44.220Z,97669.47
2023-04-23T00:27:10.954Z,97671.81
2023-04-23T00:29:37.587Z,97666.69
2023-04-23T00:32:04.756Z,97667.16
2023-04-23T00:34:31.443Z,97671.53
2023-04-23T00:36:58.066Z,97674.28
2023-04-23T00:39:24.740Z,97682.53
2023-04-23T00:41:51.759Z,97684.50
2023-04-23T00:44:18.411Z,97683.31
2023-04-23T00:46:46.495Z,97683.66
2023-04-23T00:49:14.373Z,97686.47
2023-04-23T00:54:12.818Z,97694.84
2023-04-23T00:56:39.701Z,97695.66
2023-04-23T00:59:06.464Z,97700.34
2023-04-23T01:01:33.562Z,97692.03
2023-04-23T01:06:33.918Z,97705.91
2023-04-23T01:09:01.118Z,97710.75
2023-04-23T01:11:27.948Z,97707.72
2023-04-23T01:13:55.840Z,97709.38
2023-04-23T01:16:22.544Z,97709.41
2023-04-23T01:18:49.200Z,97712.94
2023-04-23T01:21:17.251Z,97707.06
2023-04-23T01:23:44.025Z,97706.34
2023-04-23T01:26:11.081Z,97710.72
2023-04-23T01:28:38.426Z,97706.81
2023-04-23T01:31:05.612Z,97713.09
2023-04-23T01:33:32.784Z,97712.34
2023-04-23T01:36:00.869Z,97704.94
2023-04-23T01:38:29.025Z,97718.34
2023-04-23T01:40:55.693Z,97710.44
2023-04-23T01:43:22.845Z,97718.38
2023-04-23T01:45:49.673Z,97721.50
2023-04-23T01:48:16.450Z,97717.59
2023-04-23T01:50:43.855Z,97721.13
2023-04-23T01:53:10.880Z,97728.25
2023-04-23T01:55:39.456Z,97735.34
2023-04-23T01:58:06.806Z,97730.72
2023-04-23T02:00:33.469Z,97733.47
2023-04-23T02:03:00.488Z,97732.72
2023-04-23T02:05:29.138Z,97736.28
2023-04-23T02:10:30.850Z,97743.38
2023-04-23T02:12:59.360Z,97741.38
2023-04-23T02:15:26.188Z,97729.72
2023-04-23T02:17:53.151Z,97733.63
2023-04-23T02:20:20.699Z,97737.94
2023-04-23T02:22:48.541Z,97753.91
2023-04-23T02:25:17.260Z,97755.91
2023-04-23T02:27:44.775Z,97757.91
2023-04-23T02:30:12.614Z,97756.38
2023-04-23T02:32:39.727Z,97761.13
2023-04-23T02:35:06.909Z,97769.69
2023-04-23T02:37:34.027Z,97757.47
2023-04-23T02:40:00.675Z,97755.50
2023-04-23T02:42:27.415Z,97754.63
2023-04-23T02:44:54.098Z,97751.69
2023-04-23T02:47:20.926Z,97750.97
2023-04-23T02:52:25.717Z,97747.03
2023-04-23T02:54:52.327Z,97747.84
2023-04-23T02:57:19.447Z,97750.66
2023-04-23T02:59:46.564Z,97738.97
2023-04-23T03:02:13.298Z,97739.00
2023-04-23T03:04:40.535Z,97746.44
2023-04-23T03:07:07.405Z,97746.84
2023-04-23T03:09:34.127Z,97754.16
2023-04-23T03:12:00.831Z,97755.69
2023-04-23T03:14:27.479Z,97763.91
2023-04-23T03:16:54.227Z,97762.38
2023-04-23T03:19:20.855Z,97756.13
2023-04-23T03:21:47.533Z,97745.94
2023-04-23T03:24:15.362Z,97746.00
2023-04-23T03:26:41.989Z,97750.69
2023-04-23T03:31:39.988Z,97743.69
2023-04-23T03:34:06.742Z,97740.16
2023-04-23T03:36:33.470Z,97727.69
2023-04-23T03:39:00.128Z,97731.22
2023-04-23T03:41:26.761Z,97721.03
2023-04-23T03:43:53.688Z,97721.41
2023-04-23T03:46:20.374Z,97714.28
2023-04-23T03:48:47.060Z,97722.94
2023-04-23T03:51:13.764Z,97726.78
2023-04-23T03:53:40.392Z,97729.88
2023-04-23T03:58:38.498Z,97726.03
2023-04-23T04:01:05.303Z,97729.59
2023-04-23T04:08:38.273Z,97742.44
2023-04-23T04:11:05.036Z,97740.13
2023-04-23T04:13:31.713Z,97752.28
2023-04-23T04:15:58.383Z,97761.28
2023-04-23T04:18:25.031Z,97751.13
2023-04-23T04:20:52.463Z,97754.28
2023-04-23T04:23:19.298Z,97753.41
2023-04-23T04:25:46.109Z,97743.25
2023-04-23T04:28:12.991Z,97743.66
2023-04-23T04:30:40.661Z,97752.72
2023-04-23T04:33:07.288Z,97747.22
2023-04-23T04:35:33.919Z,97747.22
2023-04-23T04:38:00.585Z,97753.09
2023-04-23T04:40:28.892Z,97761.34
2023-04-23T04:42:55.607Z,97764.44
2023-04-23T04:45:22.460Z,97761.72
2023-04-23T04:47:49.180Z,97762.13
2023-04-23T04:50:15.866Z,97763.28
2023-04-23T04:52:42.501Z,97764.50
2023-04-23T04:55:09.727Z,97760.53
2023-04-23T04:57:36.804Z,97759.78
2023-04-23T05:00:20.247Z,97764.06
2023-04-23T05:02:47.993Z,97764.09
2023-04-23T05:05:15.231Z,97758.63
2023-04-23T05:07:41.972Z,97764.88
2023-04-23T05:10:09.098Z,97764.09
2023-04-23T05:12:35.868Z,97749.13
2023-04-23T05:15:02.565Z,97752.72
2023-04-23T05:20:00.523Z,97755.06
2023-04-23T05:22:27.650Z,97766.00
2023-04-23T05:24:54.408Z,97765.97
2023-04-23T05:27:21.096Z,97769.50
2023-04-23T05:29:47.798Z,97757.31
2023-04-23T05:32:14.620Z,97757.72
2023-04-23T05:34:41.842Z,97751.03
2023-04-23T05:37:08.845Z,97760.44
2023-04-23T05:39:35.514Z,97769.06
2023-04-23T05:42:03.266Z,97770.97
2023-04-23T05:47:03.753Z,97764.63
2023-04-23T05:49:30.681Z,97764.69
2023-04-23T05:51:59.481Z,97767.38
2023-04-23T05:54:26.638Z,97772.06
2023-04-23T05:56:54.649Z,97765.41
2023-04-23T05:59:22.245Z,97764.63
2023-04-23T06:01:49.485Z,97767.41
2023-04-23T06:04:16.771Z,97773.66
2023-04-23T06:06:43.955Z,97768.56
2023-04-23T06:11:44.563Z,97776.34
2023-04-23T06:14:11.267Z,97775.22
2023-04-23T06:16:37.874Z,97774.44
2023-04-23T06:19:04.547Z,97779.13
2023-04-23T06:21:31.538Z,97781.41
2023-04-23T06:23:58.270Z,97758.50
2023-04-23T06:26:24.973Z,97771.69
2023-04-23T06:28:51.618Z,97774.59
2023-04-23T06:31:18.287Z,97763.41
2023-04-23T06:33:44.917Z,97771.22
2023-04-23T06:36:11.574Z,97764.66
2023-04-23T06:38:38.610Z,97760.47
2023-04-23T06:41:05.624Z,97763.63
2023-04-23T06:43:32.951Z,97769.16
2023-04-23T06:45:59.603Z,97755.03
2023-04-23T06:48:26.719Z,97762.81
2023-04-23T06:50:53.437Z,97758.91
2023-04-23T06:53:20.217Z,97750.25
2023-04-23T06:55:46.930Z,97743.06
2023-04-23T06:58:14.230Z,97746.03
2023-04-23T07:00:42.112Z,97745.53
2023-04-23T07:03:09.084Z,97737.84
2023-04-23T07:05:36.230Z,97742.19
2023-04-23T07:08:02.964Z,97736.97
2023-04-23T07:10:29.612Z,97731.56
2023-04-23T07:15:27.741Z,97737.25
2023-04-23T07:20:26.367Z,97737.75
2023-04-23T07:22:53.113Z,97736.63
2023-04-23T07:25:19.852Z,97737.50
2023-04-23T07:27:46.475Z,97734.72
2023-04-23T07:30:13.702Z,97738.25
2023-04-23T07:32:40.511Z,97726.03
2023-04-23T07:35:08.777Z,97729.53
2023-04-23T07:37:35.569Z,97733.13
2023-04-23T07:40:02.662Z,97730.97
2023-04-23T07:42:29.341Z,97730.59
2023-04-23T07:44:56.013Z,97720.91
2023-04-23T07:47:22.984Z,97717.34
2023-04-23T07:49:49.855Z,97733.84
2023-04-23T07:52:17.182Z,97727.59
2023-04-23T07:54:44.605Z,97726.47
2023-04-23T07:57:12.448Z,97720.41
2023-04-23T07:59:42.282Z,97722.75
2023-04-23T08:02:09.381Z,97724.09
2023-04-23T08:04:36.268Z,97716.75
2023-04-23T08:07:03.056Z,97711.75
2023-04-23T08:09:29.674Z,97710.66
2023-04-23T08:11:57.813Z,97711.69
2023-04-23T08:14:24.474Z,97717.44
2023-04-23T08:16:51.107Z,97707.00
2023-04-23T08:19:17.799Z,97700.00
2023-04-23T08:21:44.445Z,97703.13
2023-04-23T08:24:11.264Z,97701.63
2023-04-23T08:26:37.968Z,97695.41
2023-04-23T08:29:05.497Z,97693.16
2023-04-23T08:31:32.793Z,97695.34
2023-04-23T08:33:59.643Z,97697.53
2023-04-23T08:36:27.817Z,97693.19
2023-04-23T08:38:54.432Z,97693.69
2023-04-23T08:41:23.983Z,97691.50
2023-04-23T08:44:02.380Z,97688.38
2023-04-23T08:46:33.165Z,97690.16
2023-04-23T08:49:01.072Z,97694.63
2023-04-23T08:51:30.640Z,97691.13
2023-04-23T08:53:59.522Z,97690.28
2023-04-23T08:56:27.638Z,97683.44
2023-04-23T08:58:56.876Z,97686.47
2023-04-23T09:01:23.978Z,97680.03
2023-04-23T09:03:51.834Z,97681.59
2023-04-23T09:06:20.061Z,97676.19
2023-04-23T09:08:46.972Z,97678.22
2023-04-23T09:11:14.161Z,97686.63
2023-04-23T09:13:41.726Z,97673.19
2023-04-23T09:16:08.634Z,97668.31
2023-04-23T09:18:35.985Z,97668.84
2023-04-23T09:21:04.569Z,97663.34
2023-04-23T09:23:32.230Z,97664.81
2023-04-23T09:25:58.977Z,97651.53
2023-04-23T09:28:36.530Z,97654.88
2023-04-23T09:31:05.732Z,97652.47
2023-04-23T09:36:15.852Z,97639.88
2023-04-23T09:38:42.518Z,97637.56
2023-04-23T09:41:26.068Z,97634.00
2023-04-23T09:43:56.849Z,97631.72
2023-04-23T09:46:40.585Z,97626.34
2023-04-23T09:49:08.090Z,97624.13
2023-04-23T09:51:39.692Z,97616.94
2023-04-23T09:56:51.215Z,97614.56
2023-04-23T09:59:45.797Z,97625.28
2023-04-23T10:02:15.614Z,97599.88
2023-04-23T10:09:43.977Z,97608.22
2023-04-23T10:12:27.817Z,97600.63
2023-04-23T10:14:59.865Z,97596.94
2023-04-23T10:20:01.937Z,97588.69
2023-04-23T10:22:30.902Z,97585.63
2023-04-23T10:25:01.144Z,97577.53
2023-04-23T10:27:44.222Z,97579.50
2023-04-23T10:30:16.515Z,97580.34
2023-04-23T10:32:45.232Z,97572.34
2023-04-23T10:35:12.006Z,97567.16
2023-04-23T10:37:39.361Z,97568.31
2023-04-23T10:40:13.046Z,97563.03
2023-04-23T10:42:44.606Z,97559.41
2023-04-23T10:47:49.085Z,97561.88
2023-04-23T10:50:21.371Z,97553.34
2023-04-23T10:52:51.792Z,97546.69
2023-04-23T10:55:20.926Z,97543.38
2023-04-23T10:58:00.792Z,97542.88
2023-04-23T11:00:30.237Z,97543.00
2023-04-23T11:02:57.100Z,97538.06
2023-04-23T11:05:25.791Z,97534.81
2023-04-23T11:10:57.272Z,97522.59
2023-04-23T11:13:28.170Z,97523.59
2023-04-23T11:16:14.597Z,97520.97
2023-04-23T11:22:01.689Z,97508.03
2023-04-23T11:24:34.031Z,97503.53
2023-04-23T11:27:01.550Z,97501.22
2023-04-23T11:29:28.853Z,97498.06
2023-04-23T11:34:26.531Z,97494.75
2023-04-23T11:36:54.966Z,97490.88
2023-04-23T11:39:24.889Z,97493.00
2023-04-23T11:41:52.597Z,97497.72
2023-04-23T11:44:23.106Z,97492.25
2023-04-23T11:46:50.787Z,97492.06
2023-04-23T11:49:18.983Z,97487.50
2023-04-23T11:51:46.959Z,97486.97
2023-04-23T11:54:14.958Z,97473.25
2023-04-23T11:56:42.217Z,97470.03
2023-04-23T11:59:09.751Z,97459.13
2023-04-23T12:01:57.126Z,97454.09
2023-04-23T12:04:26.324Z,97450.22
2023-04-23T12:06:54.875Z,97441.53
2023-04-23T12:09:27.239Z,97445.88
2023-04-23T12:11:54.300Z,97433.75
2023-04-23T12:14:29.175Z,97430.06
2023-04-23T12:19:30.418Z,97426.81
2023-04-23T12:22:04.568Z,97420.94
2023-04-23T12:24:45.465Z,97423.50
2023-04-23T12:27:16.070Z,97415.72
2023-04-23T12:32:27.157Z,97411.50
2023-04-23T12:34:57.216Z,97405.25
2023-04-23T12:37:28.940Z,97399.94
2023-04-23T12:42:28.018Z,97392.16
2023-04-23T12:44:57.448Z,97374.31
2023-04-23T12:47:24.379Z,97380.38
2023-04-23T12:49:54.080Z,97380.19
2023-04-23T12:52:21.054Z,97383.91
2023-04-23T12:54:52.002Z,97380.84
2023-04-23T12:57:23.380Z,97374.38
2023-04-23T12:59:50.442Z,97370.13
2023-04-23T13:02:17.336Z,97368.66
2023-04-23T13:04:44.227Z,97365.72
2023-04-23T13:07:10.934Z,97360.78
2023-04-23T13:09:37.549Z,97354.94
2023-04-23T13:12:04.421Z,97344.97
2023-04-23T13:14:32.469Z,97334.97
2023-04-23T13:16:59.205Z,97338.41
2023-04-23T13:19:26.515Z,97329.50
2023-04-23T13:21:53.861Z,97323.28
2023-04-23T13:24:20.728Z,97311.84
2023-04-23T13:26:47.450Z,97310.59
2023-04-23T13:29:14.203Z,97300.53
2023-04-23T13:31:41.287Z,97301.84
2023-04-23T13:34:08.429Z,97288.06
2023-04-23T13:36:35.069Z,97289.28
2023-04-23T13:39:01.773Z,97280.41
2023-04-23T13:41:28.404Z,97274.66
2023-04-23T13:43:55.007Z,97273.19
2023-04-23T13:46:21.854Z,97264.88
2023-04-23T13:48:48.489Z,97260.94
2023-04-23T13:51:33.358Z,97260.88
2023-04-23T13:54:01.875Z,97246.63
2023-04-23T13:56:30.354Z,97249.00
2023-04-23T13:59:15.546Z,97247.69
2023-04-23T14:01:47.393Z,97249.25
2023-04-23T14:04:14.165Z,97236.75
2023-04-23T14:06:40.990Z,97224.25
2023-04-23T14:09:07.676Z,97222.25
2023-04-23T14:11:34.416Z,97219.31
2023-04-23T14:14:01.438Z,97215.66
2023-04-23T14:16:28.290Z,97213.81
2023-04-23T14:18:55.144Z,97213.81
2023-04-23T14:21:22.762Z,97210.13
2023-04-23T14:23:52.103Z,97199.31
2023-04-23T14:32:07.525Z,97176.16
2023-04-23T14:34:36.884Z,97182.34
2023-04-23T14:37:04.028Z,97183.09
2023-04-23T14:39:30.938Z,97182.16
2023-04-23T14:41:57.599Z,97171.19
2023-04-23T14:44:26.589Z,97175.53
2023-04-23T14:46:53.482Z,97161.69
2023-04-23T14:49:23.285Z,97155.53
2023-04-23T14:51:54.434Z,97152.44
2023-04-23T14:54:24.185Z,97153.06
2023-04-23T14:59:30.036Z,97146.78
2023-04-23T15:01:57.198Z,97150.03
2023-04-23T15:04:24.058Z,97145.88
2023-04-23T15:06:50.774Z,97153.13
2023-04-23T15:09:17.761Z,97150.03
2023-04-23T15:11:44.607Z,97144.78
2023-04-23T15:14:25.833Z,97144.47
2023-04-23T15:16:52.781Z,97148.78
2023-04-23T15:19:19.534Z,97144.31
2023-04-23T15:21:46.936Z,97148.50
2023-04-23T15:26:49.794Z,97145.25
2023-04-23T15:29:16.695Z,97138.31
2023-04-23T15:31:43.530Z,97142.66
2023-04-23T15:34:11.722Z,97143.44
2023-04-23T15:36:38.516Z,97148.03
2023-04-23T15:39:06.588Z,97149.72
2023-04-23T15:41:33.404Z,97145.25
2023-04-23T15:44:00.549Z,97148.78
2023-04-23T15:46:27.206Z,97147.53
2023-04-23T15:48:53.881Z,97146.25
2023-04-23T15:51:20.549Z,97148.09
2023-04-23T15:53:47.265Z,97149.19
2023-04-23T15:56:13.914Z,97155.41
2023-04-23T15:58:40.681Z,97183.66
2023-04-23T16:01:07.640Z,97207.44
2023-04-23T16:03:34.739Z,97202.75
2023-04-23T16:06:01.995Z,97192.25
2023-04-23T16:08:28.717Z,97149.41
2023-04-23T16:10:57.237Z,97158.09
2023-04-23T16:13:24.594Z,97156.94
2023-04-23T16:15:51.425Z,97148.66
2023-04-23T16:18:18.194Z,97150.66
2023-04-23T16:20:44.992Z,97152.41
2023-04-23T16:23:11.736Z,97157.25
2023-04-23T16:25:38.998Z,97151.81
2023-04-23T16:28:05.716Z,97163.31
2023-04-23T16:30:32.401Z,97166.06
2023-04-23T16:38:11.253Z,97166.66
2023-04-23T16:40:39.852Z,97168.97
2023-04-23T16:43:06.579Z,97181.66
2023-04-23T16:45:35.077Z,97232.78
2023-04-23T16:48:01.802Z,97268.38
2023-04-23T16:50:28.466Z,97296.25
2023-04-23T16:52:56.122Z,97298.28
2023-04-23T16:55:22.794Z,97265.78
2023-04-23T17:02:52.168Z,97189.28
2023-04-23T17:05:21.261Z,97198.94
2023-04-23T17:07:48.004Z,97197.78
2023-04-23T17:10:17.437Z,97200.13
2023-04-23T17:12:44.123Z,97209.78
2023-04-23T17:15:11.358Z,97207.88
2023-04-23T17:17:38.677Z,97213.06
2023-04-23T17:22:44.692Z,97216.28
2023-04-23T17:25:11.492Z,97220.19
2023-04-23T17:27:38.169Z,97217.84
2023-04-23T17:30:05.720Z,97213.38
2023-04-23T17:32:32.582Z,97219.72
2023-04-23T17:35:09.534Z,97218.78
2023-04-23T17:37:37.119Z,97219.78
2023-04-23T17:40:06.060Z,97225.72
2023-04-23T17:42:33.292Z,97235.31
2023-04-23T17:44:59.994Z,97246.88
2023-04-23T17:47:27.839Z,97244.03
2023-04-23T17:49:54.678Z,97239.63
2023-04-23T17:52:21.458Z,97239.75
2023-04-23T17:54:48.134Z,97241.72
2023-04-23T17:57:14.748Z,97232.94
2023-04-23T17:59:41.725Z,97237.53
2023-04-23T18:02:08.872Z,97229.69
2023-04-23T18:04:37.025Z,97233.38
2023-04-23T18:07:03.744Z,97224.91
2023-04-23T18:09:30.407Z,97226.59
2023-04-23T18:11:59.275Z,97236.16
2023-04-23T18:14:26.019Z,97222.38
2023-04-23T18:16:52.894Z,97232.78
2023-04-23T18:19:19.672Z,97235.47
2023-04-23T18:21:46.429Z,97238.75
2023-04-23T18:24:13.593Z,97244.81
2023-04-23T18:26:40.234Z,97245.25
2023-04-23T18:29:06.936Z,97246.06
2023-04-23T18:31:33.762Z,97246.91
2023-04-23T18:34:03.880Z,97242.50
2023-04-23T18:36:32.968Z,97245.78
2023-04-23T18:39:00.288Z,97240.97
2023-04-23T18:41:30.125Z,97249.13
2023-04-23T18:43:57.395Z,97244.59
2023-04-23T18:46:24.184Z,97250.13
2023-04-23T18:49:29.479Z,97259.00
2023-04-23T18:51:56.515Z,97260.66
2023-04-23T18:54:25.721Z,97265.78
2023-04-23T18:56:55.732Z,97275.03
2023-04-23T18:59:22.425Z,97274.88
2023-04-23T19:01:50.016Z,97282.63
2023-04-23T19:04:16.993Z,97278.91
2023-04-23T19:06:43.807Z,97277.72
2023-04-23T19:09:10.614Z,97288.28
2023-04-23T19:11:38.403Z,97292.28
2023-04-23T19:14:05.366Z,97306.06
2023-04-23T19:19:04.693Z,97301.22
2023-04-23T19:21:31.885Z,97298.38
2023-04-23T19:23:58.519Z,97304.78
2023-04-23T19:26:25.182Z,97308.69
2023-04-23T19:28:51.885Z,97294.50
2023-04-23T19:31:18.672Z,97316.16
2023-04-23T19:33:46.533Z,97310.09
2023-04-23T19:36:14.169Z,97317.53
2023-04-23T19:38:41.161Z,97332.06
2023-04-23T19:41:08.267Z,97352.16
2023-04-23T19:43:34.996Z,97355.66
2023-04-23T19:46:02.213Z,97356.09
2023-04-23T19:48:28.947Z,97351.47
2023-04-23T19:50:55.761Z,97361.06
2023-04-23T19:53:22.372Z,97360.31
2023-04-23T19:55:49.006Z,97348.63
2023-04-23T20:00:49.330Z,97330.28
2023-04-23T20:03:16.273Z,97331.97
2023-04-23T20:08:29.113Z,97358.13
2023-04-23T20:13:32.056Z,97368.53
2023-04-23T20:15:59.415Z,97371.66
2023-04-23T20:18:29.308Z,97375.19
2023-04-23T20:20:56.005Z,97372.75
2023-04-23T20:23:22.706Z,97371.16
2023-04-23T20:25:49.428Z,97374.28
2023-04-23T20:28:16.494Z,97365.31
2023-04-23T20:30:43.175Z,97368.81
2023-04-23T20:33:10.643Z,97375.63
2023-04-23T20:35:39.824Z,97364.22
2023-04-23T20:38:06.551Z,97363.41
2023-04-23T20:40:34.777Z,97359.16
2023-04-23T20:43:01.517Z,97354.94
2023-04-23T20:45:28.174Z,97362.75
2023-04-23T20:50:28.717Z,97359.28
2023-04-23T20:52:55.401Z,97360.06
2023-04-23T20:55:22.124Z,97358.06
2023-04-23T20:57:48.835Z,97364.78
2023-04-23T21:00:16.082Z,97365.13
2023-04-23T21:02:44.349Z,97369.91
2023-04-23T21:05:12.232Z,97361.31
2023-04-23T21:07:39.050Z,97371.50
2023-04-23T21:10:06.328Z,97373.91
2023-04-23T21:12:33.100Z,97375.44
2023-04-23T21:14:59.728Z,97377.06
2023-04-23T21:17:26.557Z,97375.53
2023-04-23T21:19:53.274Z,97377.22
2023-04-23T21:22:19.880Z,97380.28
2023-04-23T21:27:21.950Z,97377.22
2023-04-23T21:29:48.863Z,97375.19
2023-04-23T21:32:16.187Z,97367.78
2023-04-23T21:34:43.073Z,97363.91
2023-04-23T21:37:09.773Z,97363.91
2023-04-23T21:39:36.480Z,97356.09
2023-04-23T21:42:03.388Z,97351.75
2023-04-23T21:44:31.472Z,97347.03
2023-04-23T21:46:58.213Z,97347.00
2023-04-23T21:49:24.954Z,97352.56
2023-04-23T21:51:54.709Z,97349.09
2023-04-23T21:54:22.185Z,97355.72
2023-04-23T21:56:48.943Z,97364.72
2023-04-23T22:01:46.949Z,97373.78
2023-04-23T22:04:14.333Z,97371.34
2023-04-23T22:06:41.175Z,97366.38
2023-04-23T22:09:07.893Z,97364.81
2023-04-23T22:11:34.849Z,97368.25
2023-04-23T22:14:02.024Z,97381.56
2023-04-23T22:16:29.366Z,97381.22
2023-04-23T22:18:58.824Z,97379.59
2023-04-23T22:21:25.486Z,97378.06
2023-04-23T22:23:52.137Z,97364.06
2023-04-23T22:26:18.823Z,97353.50
2023-04-23T22:28:45.483Z,97351.53
2023-04-23T22:31:12.125Z,97348.03
2023-04-23T22:33:39.696Z,97336.94
2023-04-23T22:36:06.982Z,97335.84
2023-04-23T22:38:33.802Z,97340.94
2023-04-23T22:41:00.462Z,97344.38
2023-04-23T22:43:27.178Z,97345.25
2023-04-23T22:45:53.818Z,97344.81
2023-04-23T22:48:21.524Z,97346.75
2023-04-23T22:50:51.086Z,97340.88
2023-04-23T22:53:19.688Z,97351.50
2023-04-23T22:55:46.802Z,97352.25
2023-04-23T22:58:13.451Z,97356.50
2023-04-23T23:00:40.549Z,97340.88
2023-04-23T23:03:07.314Z,97342.00
2023-04-23T23:05:34.387Z,97331.03
2023-04-23T23:08:01.017Z,97318.59
2023-04-23T23:10:28.929Z,97322.06
2023-04-23T23:12:55.608Z,97329.16
2023-04-23T23:15:22.244Z,97324.03
2023-04-23T23:17:48.911Z,97327.09
2023-04-23T23:20:16.589Z,97322.81
2023-04-23T23:22:43.297Z,97327.63
2023-04-23T23:25:10.062Z,97313.13
2023-04-23T23:27:36.742Z,97317.41
2023-04-23T23:30:06.229Z,97318.50
2023-04-23T23:32:33.470Z,97327.19
2023-04-23T23:35:00.570Z,97324.94
2023-04-23T23:37:27.455Z,97325.66
2023-04-23T23:39:54.108Z,97327.97
2023-04-23T23:42:20.767Z,97318.59
2023-04-23T23:44:47.427Z,97325.28
2023-04-23T23:47:14.196Z,97326.47
2023-04-23T23:49:42.176Z,97327.56
2023-04-23T23:52:09.030Z,97323.31
2023-04-23T23:54:36.131Z,97320.13
2023-04-23T23:57:02.832Z,97312.34
2023-04-23T23:59:29.467Z,97313.94
